createdAt,value
2022-09-11T00:01:43.612Z,20.67
2022-09-11T00:04:11.809Z,20.72
2022-09-11T00:06:40.962Z,20.69
2022-09-11T00:09:09.368Z,20.63
2022-09-11T00:11:41.409Z,20.57
2022-09-11T00:14:11.819Z,20.52
2022-09-11T00:16:45.517Z,20.43
2022-09-11T00:19:19.070Z,20.35
2022-09-11T00:21:49.953Z,20.29
2022-09-11T00:24:18.086Z,20.26
2022-09-11T00:26:47.453Z,20.31
2022-09-11T00:29:15.806Z,20.31
2022-09-11T00:31:44.033Z,20.31
2022-09-11T00:34:12.332Z,20.30
2022-09-11T00:36:41.754Z,20.30
2022-09-11T00:39:12.044Z,20.28
2022-09-11T00:41:42.930Z,20.25
2022-09-11T00:44:17.880Z,20.23
2022-09-11T00:46:53.299Z,20.20
2022-09-11T00:49:30.596Z,20.27
2022-09-11T00:52:20.995Z,20.30
2022-09-11T00:54:56.349Z,20.35
2022-09-11T00:57:28.870Z,20.37
2022-09-11T00:59:59.558Z,20.32
2022-09-11T01:02:30.037Z,20.25
2022-09-11T01:04:58.765Z,20.19
2022-09-11T01:07:29.086Z,20.09
2022-09-11T01:09:59.337Z,20.00
2022-09-11T01:12:58.460Z,19.92
2022-09-11T01:15:51.891Z,19.86
2022-09-11T01:18:34.305Z,19.85
2022-09-11T01:21:38.779Z,19.84
2022-09-11T01:24:19.148Z,19.78
2022-09-11T01:27:02.181Z,19.79
2022-09-11T01:30:11.922Z,19.71
2022-09-11T01:33:04.076Z,19.66
2022-09-11T01:35:41.667Z,19.67
2022-09-11T01:38:39.198Z,19.67
2022-09-11T01:41:08.157Z,19.63
2022-09-11T01:44:07.101Z,19.58
2022-09-11T01:46:50.043Z,19.48
2022-09-11T01:49:44.120Z,19.39
2022-09-11T01:52:18.901Z,19.30
2022-09-11T01:54:54.334Z,19.33
2022-09-11T01:57:39.480Z,19.37
2022-09-11T02:00:11.637Z,19.34
2022-09-11T02:03:25.796Z,19.30
2022-09-11T02:06:01.493Z,19.27
2022-09-11T02:08:52.241Z,19.26
2022-09-11T02:11:23.670Z,19.30
2022-09-11T02:14:22.844Z,19.30
2022-09-11T02:17:05.743Z,19.38
2022-09-11T02:19:33.939Z,19.37
2022-09-11T02:22:02.168Z,19.37
2022-09-11T02:24:30.326Z,19.34
2022-09-11T02:27:03.965Z,19.38
2022-09-11T02:29:34.269Z,19.42
2022-09-11T02:32:03.857Z,19.45
2022-09-11T02:34:34.609Z,19.50
2022-09-11T02:37:41.709Z,19.56
2022-09-11T02:40:48.589Z,19.62
2022-09-11T02:43:54.847Z,19.73
2022-09-11T02:46:54.429Z,19.83
2022-09-11T02:49:51.080Z,19.88
2022-09-11T02:52:47.684Z,19.94
2022-09-11T02:55:40.167Z,19.88
2022-09-11T02:58:22.999Z,19.65
2022-09-11T03:00:54.487Z,19.44
2022-09-11T03:03:22.783Z,19.19
2022-09-11T03:05:53.258Z,19.03
2022-09-11T03:08:21.755Z,18.86
2022-09-11T03:10:50.026Z,18.70
2022-09-11T03:13:18.456Z,18.53
2022-09-11T03:15:47.598Z,18.45
2022-09-11T03:18:15.873Z,18.25
2022-09-11T03:20:47.738Z,18.18
2022-09-11T03:23:15.930Z,18.02
2022-09-11T03:25:44.207Z,18.01
2022-09-11T03:28:13.025Z,17.95
2022-09-11T03:30:41.582Z,17.87
2022-09-11T03:33:11.426Z,17.59
2022-09-11T03:35:39.519Z,17.40
2022-09-11T03:38:07.596Z,17.27
2022-09-11T03:40:35.721Z,17.13
2022-09-11T03:43:04.244Z,16.93
2022-09-11T03:45:32.520Z,16.91
2022-09-11T03:48:01.237Z,16.89
2022-09-11T03:50:32.582Z,16.82
2022-09-11T03:53:00.967Z,16.72
2022-09-11T03:55:29.493Z,16.68
2022-09-11T03:57:59.207Z,16.57
2022-09-11T04:00:28.076Z,16.55
2022-09-11T04:02:58.168Z,16.53
2022-09-11T04:05:55.332Z,16.51
2022-09-11T04:08:23.508Z,16.53
2022-09-11T04:10:59.900Z,16.53
2022-09-11T04:13:33.108Z,16.46
2022-09-11T04:16:10.031Z,16.42
2022-09-11T04:18:41.637Z,16.38
2022-09-11T04:21:14.722Z,16.41
2022-09-11T04:23:44.075Z,16.35
2022-09-11T04:26:23.609Z,16.36
2022-09-11T04:28:54.969Z,16.41
2022-09-11T04:31:23.609Z,16.40
2022-09-11T04:33:54.782Z,16.40
2022-09-11T04:36:27.248Z,16.38
2022-09-11T04:38:57.946Z,16.35
2022-09-11T04:41:27.451Z,16.36
2022-09-11T04:44:03.918Z,16.30
2022-09-11T04:46:34.676Z,16.28
2022-09-11T04:49:04.484Z,16.28
2022-09-11T04:51:38.407Z,16.26
2022-09-11T04:54:10.587Z,16.29
2022-09-11T04:56:39.514Z,16.23
2022-09-11T04:59:15.396Z,16.15
2022-09-11T05:01:48.250Z,16.05
2022-09-11T05:04:25.302Z,16.07
2022-09-11T05:06:55.468Z,16.06
2022-09-11T05:09:24.208Z,16.02
2022-09-11T05:11:52.414Z,16.00
2022-09-11T05:14:22.536Z,16.00
2022-09-11T05:16:56.020Z,16.09
2022-09-11T05:19:26.611Z,16.15
2022-09-11T05:21:55.605Z,16.15
2022-09-11T05:24:24.999Z,16.18
2022-09-11T05:26:53.559Z,16.26
2022-09-11T05:29:32.189Z,16.35
2022-09-11T05:32:09.167Z,16.38
2022-09-11T05:34:37.375Z,16.33
2022-09-11T05:37:06.105Z,16.32
2022-09-11T05:39:40.818Z,16.32
2022-09-11T05:42:13.273Z,16.32
2022-09-11T05:44:47.257Z,16.26
2022-09-11T05:47:16.388Z,16.33
2022-09-11T05:49:47.182Z,16.46
2022-09-11T05:52:15.981Z,16.56
2022-09-11T05:54:44.059Z,16.62
2022-09-11T05:57:14.023Z,16.75
2022-09-11T05:59:42.228Z,16.85
2022-09-11T06:02:11.925Z,16.96
2022-09-11T06:04:45.341Z,17.13
2022-09-11T06:07:14.239Z,17.23
2022-09-11T06:09:47.308Z,17.35
2022-09-11T06:12:15.356Z,17.34
2022-09-11T06:14:44.942Z,17.42
2022-09-11T06:17:14.391Z,17.54
2022-09-11T06:19:42.500Z,17.59
2022-09-11T06:22:11.089Z,17.66
2022-09-11T06:24:47.965Z,17.76
2022-09-11T06:27:18.212Z,17.88
2022-09-11T06:29:50.191Z,18.06
2022-09-11T06:32:21.096Z,18.36
2022-09-11T06:34:49.420Z,18.62
2022-09-11T06:37:17.614Z,19.27
2022-09-11T06:39:45.840Z,19.95
2022-09-11T06:42:21.075Z,20.50
2022-09-11T06:44:51.770Z,20.72
2022-09-11T06:47:20.774Z,21.08
2022-09-11T06:49:49.496Z,21.27
2022-09-11T06:52:38.031Z,21.55
2022-09-11T06:55:14.403Z,21.99
2022-09-11T06:57:48.356Z,22.05
2022-09-11T07:00:21.446Z,22.12
2022-09-11T07:02:51.363Z,22.08
2022-09-11T07:05:19.945Z,22.09
2022-09-11T07:07:51.944Z,22.13
2022-09-11T07:10:20.311Z,22.04
2022-09-11T07:12:54.717Z,22.16
2022-09-11T07:15:23.478Z,22.14
2022-09-11T07:17:52.426Z,22.23
2022-09-11T07:20:22.328Z,22.48
2022-09-11T07:22:50.868Z,22.42
2022-09-11T07:25:20.440Z,22.68
2022-09-11T07:27:48.679Z,22.91
2022-09-11T07:30:17.914Z,23.16
2022-09-11T07:32:49.899Z,23.10
2022-09-11T07:35:21.759Z,23.23
2022-09-11T07:37:52.873Z,23.42
2022-09-11T07:40:25.900Z,23.58
2022-09-11T07:42:54.315Z,23.74
2022-09-11T07:45:23.491Z,23.51
2022-09-11T07:47:53.066Z,23.54
2022-09-11T07:50:24.264Z,23.69
2022-09-11T07:52:52.731Z,23.73
2022-09-11T07:55:21.782Z,23.78
2022-09-11T07:57:52.074Z,24.13
2022-09-11T08:00:20.758Z,24.02
2022-09-11T08:02:49.263Z,24.40
2022-09-11T08:05:26.146Z,23.87
2022-09-11T08:07:55.090Z,23.84
2022-09-11T08:10:27.749Z,23.88
2022-09-11T08:12:59.918Z,24.40
2022-09-11T08:15:32.589Z,24.51
2022-09-11T08:18:02.405Z,24.83
2022-09-11T08:20:31.595Z,24.81
2022-09-11T08:22:59.694Z,25.15
2022-09-11T08:25:28.692Z,25.48
2022-09-11T08:27:58.210Z,25.43
2022-09-11T08:30:27.874Z,25.78
2022-09-11T08:32:56.181Z,26.37
2022-09-11T08:35:24.522Z,26.81
2022-09-11T08:37:55.259Z,26.97
2022-09-11T08:40:24.270Z,26.65
2022-09-11T08:42:55.689Z,26.73
2022-09-11T08:45:31.071Z,27.03
2022-09-11T08:48:01.269Z,26.87
2022-09-11T08:50:36.085Z,28.17
2022-09-11T08:53:15.229Z,29.70
2022-09-11T08:56:00.395Z,28.86
2022-09-11T08:58:44.749Z,28.77
2022-09-11T09:01:33.817Z,28.19
2022-09-11T09:04:10.790Z,27.22
2022-09-11T09:06:54.374Z,26.59
2022-09-11T09:09:25.446Z,26.01
2022-09-11T09:12:12.310Z,26.00
2022-09-11T09:15:29.202Z,25.85
2022-09-11T09:18:08.815Z,25.71
2022-09-11T09:20:45.083Z,25.61
2022-09-11T09:23:21.066Z,25.47
2022-09-11T09:25:53.182Z,25.28
2022-09-11T09:28:27.071Z,25.30
2022-09-11T09:30:58.638Z,25.16
2022-09-11T09:33:31.266Z,25.24
2022-09-11T09:36:14.052Z,25.22
2022-09-11T09:38:43.146Z,25.21
2022-09-11T09:41:23.184Z,25.22
2022-09-11T09:44:06.437Z,25.41
2022-09-11T09:46:50.862Z,25.53
2022-09-11T09:49:27.466Z,25.53
2022-09-11T09:52:03.513Z,25.54
2022-09-11T09:54:36.507Z,25.61
2022-09-11T09:57:08.439Z,25.66
2022-09-11T10:00:07.330Z,25.53
2022-09-11T10:02:54.739Z,25.45
2022-09-11T10:05:40.488Z,25.31
2022-09-11T10:08:47.049Z,25.35
2022-09-11T10:11:27.443Z,25.61
2022-09-11T10:13:57.279Z,25.71
2022-09-11T10:16:27.418Z,25.74
2022-09-11T10:18:56.954Z,25.56
2022-09-11T10:21:36.514Z,25.56
2022-09-11T10:24:10.404Z,25.41
2022-09-11T10:26:50.890Z,25.32
2022-09-11T10:29:21.149Z,25.26
2022-09-11T10:31:52.488Z,25.24
2022-09-11T10:34:22.465Z,25.59
2022-09-11T10:37:02.248Z,25.89
2022-09-11T10:39:34.052Z,25.98
2022-09-11T10:42:17.988Z,26.00
2022-09-11T10:44:49.328Z,25.99
2022-09-11T10:47:26.357Z,26.01
2022-09-11T10:50:18.068Z,26.02
2022-09-11T10:53:17.806Z,25.91
2022-09-11T10:56:08.199Z,25.45
2022-09-11T10:58:42.991Z,25.63
2022-09-11T11:01:11.289Z,25.55
2022-09-11T11:03:39.392Z,25.73
2022-09-11T11:06:37.100Z,25.86
2022-09-11T11:09:43.829Z,26.08
2022-09-11T11:12:21.654Z,26.34
2022-09-11T11:14:49.686Z,26.27
2022-09-11T11:17:58.705Z,26.50
2022-09-11T11:20:37.646Z,26.88
2022-09-11T11:23:30.129Z,27.18
2022-09-11T11:26:19.228Z,27.20
2022-09-11T11:29:01.001Z,27.47
2022-09-11T11:32:03.456Z,27.57
2022-09-11T11:34:44.157Z,27.80
2022-09-11T11:37:15.720Z,28.07
2022-09-11T11:40:19.696Z,28.16
2022-09-11T11:42:56.274Z,28.33
2022-09-11T11:45:46.347Z,28.42
2022-09-11T11:48:52.139Z,27.99
2022-09-11T11:51:28.657Z,28.04
2022-09-11T11:54:00.127Z,28.19
2022-09-11T11:56:57.445Z,28.50
2022-09-11T11:59:34.699Z,28.89
2022-09-11T12:02:14.285Z,28.64
2022-09-11T12:04:49.717Z,28.85
2022-09-11T12:07:27.794Z,29.00
2022-09-11T12:09:58.871Z,29.28
2022-09-11T12:12:32.341Z,29.47
2022-09-11T12:15:09.991Z,29.25
2022-09-11T12:17:40.255Z,28.95
2022-09-11T12:20:11.599Z,28.77
2022-09-11T12:22:48.797Z,28.82
2022-09-11T12:25:19.614Z,28.82
2022-09-11T12:28:12.896Z,28.75
2022-09-11T12:31:06.771Z,29.18
2022-09-11T12:33:47.251Z,29.49
2022-09-11T12:36:33.254Z,29.78
2022-09-11T12:39:26.507Z,30.03
2022-09-11T12:42:14.680Z,30.25
2022-09-11T12:44:51.230Z,30.09
2022-09-11T12:47:43.136Z,30.20
2022-09-11T12:50:25.555Z,30.21
2022-09-11T12:53:02.066Z,30.11
2022-09-11T12:55:41.210Z,30.41
2022-09-11T12:58:33.999Z,30.84
2022-09-11T13:01:23.157Z,30.61
2022-09-11T13:04:07.220Z,30.78
2022-09-11T13:06:52.593Z,30.87
2022-09-11T13:09:39.235Z,31.28
2022-09-11T13:12:25.703Z,31.39
2022-09-11T13:14:58.181Z,31.18
2022-09-11T13:17:34.500Z,31.02
2022-09-11T13:20:07.389Z,30.93
2022-09-11T13:22:36.093Z,31.21
2022-09-11T13:25:18.744Z,31.18
2022-09-11T13:27:56.938Z,31.22
2022-09-11T13:30:27.014Z,31.41
2022-09-11T13:33:22.324Z,31.50
2022-09-11T13:35:51.550Z,31.57
2022-09-11T13:38:30.446Z,31.99
2022-09-11T13:41:18.228Z,32.19
2022-09-11T13:43:58.258Z,31.54
2022-09-11T13:46:32.916Z,31.45
2022-09-11T13:49:13.002Z,31.83
2022-09-11T13:51:46.781Z,31.52
2022-09-11T13:54:31.014Z,31.25
2022-09-11T13:57:03.079Z,31.22
2022-09-11T13:59:42.999Z,30.84
2022-09-11T14:02:34.673Z,30.62
2022-09-11T14:05:22.175Z,30.44
2022-09-11T14:07:53.375Z,30.26
2022-09-11T14:10:24.554Z,29.85
2022-09-11T14:12:56.716Z,29.47
2022-09-11T14:15:40.798Z,28.89
2022-09-11T14:18:37.330Z,28.69
2022-09-11T14:21:13.611Z,28.47
2022-09-11T14:23:49.548Z,28.40
2022-09-11T14:26:42.646Z,28.25
2022-09-11T14:29:28.294Z,28.03
2022-09-11T14:32:23.384Z,27.81
2022-09-11T14:34:51.491Z,27.47
2022-09-11T14:37:20.423Z,27.42
2022-09-11T14:40:00.229Z,27.39
2022-09-11T14:42:31.940Z,27.24
2022-09-11T14:45:07.275Z,27.08
2022-09-11T14:47:36.404Z,26.76
2022-09-11T14:50:06.798Z,26.69
2022-09-11T14:52:36.759Z,26.67
2022-09-11T14:55:07.151Z,26.55
2022-09-11T14:57:35.776Z,26.57
2022-09-11T15:00:06.616Z,26.43
2022-09-11T15:02:34.852Z,26.26
2022-09-11T15:05:02.982Z,26.15
2022-09-11T15:07:30.998Z,26.10
2022-09-11T15:09:59.087Z,26.14
2022-09-11T15:12:29.355Z,26.17
2022-09-11T15:14:59.289Z,26.13
2022-09-11T15:17:31.397Z,25.96
2022-09-11T15:20:00.703Z,25.86
2022-09-11T15:22:31.548Z,25.79
2022-09-11T15:25:00.363Z,25.72
2022-09-11T15:27:28.615Z,25.62
2022-09-11T15:29:56.707Z,25.61
2022-09-11T15:32:24.828Z,25.61
2022-09-11T15:34:54.806Z,25.57
2022-09-11T15:37:23.747Z,25.61
2022-09-11T15:39:51.914Z,25.57
2022-09-11T15:42:20.358Z,25.51
2022-09-11T15:44:50.714Z,25.45
2022-09-11T15:47:18.811Z,25.38
2022-09-11T15:49:49.812Z,25.29
2022-09-11T15:52:19.450Z,25.24
2022-09-11T15:54:48.865Z,25.23
2022-09-11T15:57:17.349Z,25.21
2022-09-11T15:59:45.471Z,25.12
2022-09-11T16:02:13.783Z,25.16
2022-09-11T16:04:41.848Z,25.13
2022-09-11T16:07:09.982Z,25.12
2022-09-11T16:09:38.217Z,25.12
2022-09-11T16:12:06.523Z,25.13
2022-09-11T16:14:37.305Z,25.08
2022-09-11T16:17:09.649Z,25.03
2022-09-11T16:19:38.771Z,24.94
2022-09-11T16:22:07.487Z,24.83
2022-09-11T16:24:37.649Z,24.84
2022-09-11T16:27:09.033Z,24.82
2022-09-11T16:30:15.547Z,24.79
2022-09-11T16:32:29.107Z,24.75
2022-09-11T16:34:59.421Z,24.71
2022-09-11T16:37:33.955Z,24.68
2022-09-11T16:40:02.909Z,24.64
2022-09-11T16:42:31.757Z,24.58
2022-09-11T16:44:59.844Z,24.52
2022-09-11T16:47:30.432Z,24.48
2022-09-11T16:50:07.512Z,24.48
2022-09-11T16:52:36.944Z,24.39
2022-09-11T16:55:09.733Z,24.30
2022-09-11T16:57:38.685Z,24.19
2022-09-11T17:00:10.849Z,24.14
2022-09-11T17:02:39.151Z,24.07
2022-09-11T17:05:09.125Z,24.00
2022-09-11T17:07:37.968Z,23.92
2022-09-11T17:10:06.822Z,23.83
2022-09-11T17:12:35.002Z,23.77
2022-09-11T17:15:03.386Z,23.70
2022-09-11T17:17:31.519Z,23.62
2022-09-11T17:19:59.603Z,23.51
2022-09-11T17:22:27.989Z,23.40
2022-09-11T17:24:56.070Z,23.33
2022-09-11T17:27:24.462Z,23.17
2022-09-11T17:29:52.621Z,23.11
2022-09-11T17:32:28.133Z,22.97
2022-09-11T17:35:00.640Z,22.85
2022-09-11T17:37:28.946Z,22.74
2022-09-11T17:39:57.990Z,22.64
2022-09-11T17:42:30.331Z,22.53
2022-09-11T17:44:59.515Z,22.37
2022-09-11T17:47:32.908Z,22.19
2022-09-11T17:50:04.059Z,22.04
2022-09-11T17:52:34.083Z,21.86
2022-09-11T17:55:02.887Z,21.73
2022-09-11T17:57:32.279Z,21.66
2022-09-11T18:00:00.935Z,21.54
2022-09-11T18:02:29.085Z,21.43
2022-09-11T18:04:57.159Z,21.35
2022-09-11T18:07:25.218Z,21.26
2022-09-11T18:09:56.327Z,21.16
2022-09-11T18:12:28.487Z,21.07
2022-09-11T18:14:59.166Z,20.99
2022-09-11T18:17:27.478Z,20.91
2022-09-11T18:19:55.767Z,20.81
2022-09-11T18:22:24.093Z,20.76
2022-09-11T18:24:52.595Z,20.71
2022-09-11T18:27:20.762Z,20.63
2022-09-11T18:29:50.130Z,20.53
2022-09-11T18:32:19.953Z,20.45
2022-09-11T18:34:48.558Z,20.37
2022-09-11T18:37:17.476Z,20.27
2022-09-11T18:39:46.990Z,20.19
2022-09-11T18:42:15.126Z,20.16
2022-09-11T18:44:43.238Z,20.09
2022-09-11T18:47:11.344Z,20.03
2022-09-11T18:49:39.627Z,19.98
2022-09-11T18:52:08.780Z,19.93
2022-09-11T18:54:37.246Z,19.88
2022-09-11T18:57:05.446Z,19.84
2022-09-11T18:59:33.580Z,19.82
2022-09-11T19:02:02.037Z,19.77
2022-09-11T19:04:30.447Z,19.76
2022-09-11T19:07:00.174Z,19.73
2022-09-11T19:09:29.323Z,19.71
2022-09-11T19:12:00.273Z,19.65
2022-09-11T19:14:30.871Z,19.60
2022-09-11T19:17:00.324Z,19.56
2022-09-11T19:19:28.655Z,19.55
2022-09-11T19:21:56.695Z,19.51
2022-09-11T19:24:28.261Z,19.49
2022-09-11T19:26:56.713Z,19.45
2022-09-11T19:29:24.770Z,19.48
2022-09-11T19:31:56.026Z,19.49
2022-09-11T19:34:24.487Z,19.52
2022-09-11T19:36:52.785Z,19.52
2022-09-11T19:39:21.842Z,19.50
2022-09-11T19:41:50.195Z,19.52
2022-09-11T19:44:19.813Z,19.48
2022-09-11T19:46:53.715Z,19.48
2022-09-11T19:49:21.850Z,19.45
2022-09-11T19:51:53.366Z,19.39
2022-09-11T19:54:23.082Z,19.34
2022-09-11T19:56:51.510Z,19.34
2022-09-11T19:59:19.701Z,19.31
2022-09-11T20:01:47.990Z,19.29
2022-09-11T20:04:17.627Z,19.28
2022-09-11T20:09:30.391Z,19.26
2022-09-11T20:12:01.187Z,19.23
2022-09-11T20:14:31.034Z,19.23
2022-09-11T20:17:00.996Z,19.18
2022-09-11T20:19:29.459Z,19.11
2022-09-11T20:21:57.727Z,19.08
2022-09-11T20:24:25.896Z,19.06
2022-09-11T20:26:54.699Z,19.05
2022-09-11T20:29:22.862Z,18.99
2022-09-11T20:31:51.302Z,18.91
2022-09-11T20:34:20.144Z,18.92
2022-09-11T20:36:48.300Z,18.89
2022-09-11T20:39:16.627Z,18.78
2022-09-11T20:41:44.993Z,18.77
2022-09-11T20:44:13.145Z,18.71
2022-09-11T20:46:43.602Z,18.67
2022-09-11T20:49:12.178Z,18.67
2022-09-11T20:51:40.538Z,18.71
2022-09-11T20:54:10.242Z,18.61
2022-09-11T20:56:38.539Z,18.52
2022-09-11T20:59:06.740Z,18.52
2022-09-11T21:01:37.597Z,18.49
2022-09-11T21:04:05.974Z,18.48
2022-09-11T21:06:35.586Z,18.51
2022-09-11T21:09:07.480Z,18.55
2022-09-11T21:11:37.168Z,18.58
2022-09-11T21:14:06.209Z,18.54
2022-09-11T21:16:34.812Z,18.50
2022-09-11T21:19:05.046Z,18.44
2022-09-11T21:21:34.346Z,18.34
2022-09-11T21:24:05.871Z,18.26
2022-09-11T21:26:36.449Z,18.26
2022-09-11T21:29:07.586Z,18.25
2022-09-11T21:31:36.335Z,18.27
2022-09-11T21:34:04.869Z,18.22
2022-09-11T21:36:33.605Z,18.18
2022-09-11T21:39:01.740Z,18.18
2022-09-11T21:41:30.080Z,18.20
2022-09-11T21:43:58.268Z,18.26
2022-09-11T21:46:26.341Z,18.30
2022-09-11T21:48:54.572Z,18.28
2022-09-11T21:51:22.782Z,18.25
2022-09-11T21:53:58.907Z,18.25
2022-09-11T21:56:30.406Z,18.26
2022-09-11T21:58:59.694Z,18.28
2022-09-11T22:01:28.849Z,18.25
2022-09-11T22:03:57.842Z,18.25
2022-09-11T22:06:26.842Z,18.21
2022-09-11T22:08:56.295Z,18.17
2022-09-11T22:11:25.939Z,18.15
2022-09-11T22:13:54.635Z,18.16
2022-09-11T22:16:23.449Z,18.18
2022-09-11T22:18:53.846Z,18.14
2022-09-11T22:21:22.153Z,18.06
2022-09-11T22:23:50.308Z,17.86
2022-09-11T22:26:20.648Z,17.78
2022-09-11T22:28:49.036Z,17.73
2022-09-11T22:31:20.549Z,17.65
2022-09-11T22:33:48.779Z,17.62
2022-09-11T22:36:28.667Z,17.64
2022-09-11T22:38:58.991Z,17.64
2022-09-11T22:41:27.777Z,17.61
2022-09-11T22:43:56.193Z,17.57
2022-09-11T22:46:26.714Z,17.59
2022-09-11T22:48:58.467Z,17.62
2022-09-11T22:51:26.632Z,17.64
2022-09-11T22:53:54.741Z,17.66
2022-09-11T22:56:22.857Z,17.65
2022-09-11T22:58:51.042Z,17.68
2022-09-11T23:01:22.416Z,17.64
2022-09-11T23:03:52.177Z,17.63
2022-09-11T23:06:39.376Z,17.59
2022-09-11T23:09:10.191Z,17.56
2022-09-11T23:11:38.842Z,17.52
2022-09-11T23:14:13.747Z,17.50
2022-09-11T23:16:42.730Z,17.50
2022-09-11T23:19:14.061Z,17.47
2022-09-11T23:21:42.915Z,17.52
2022-09-11T23:24:14.590Z,17.55
2022-09-11T23:26:43.161Z,17.53
2022-09-11T23:29:13.520Z,17.51
2022-09-11T23:31:42.046Z,17.45
2022-09-11T23:34:15.371Z,17.43
2022-09-11T23:36:43.811Z,17.37
2022-09-11T23:39:11.876Z,17.30
2022-09-11T23:41:40.053Z,17.28
2022-09-11T23:44:08.989Z,17.24
2022-09-11T23:46:38.133Z,17.23
2022-09-11T23:49:07.398Z,17.26
2022-09-11T23:51:35.482Z,17.18
2022-09-11T23:54:03.708Z,17.15
2022-09-11T23:56:31.964Z,17.18
2022-09-11T23:59:00.091Z,17.14
